sensor_id;sensor_type;location;lat;lon;timestamp;pressure;altitude;pressure_sealevel;temperature;humidity
15066;BME280;7632;64.944;20.038;2024-02-23T00:01:52;97205.66;;;1.42;100.00
15066;BME280;7632;64.944;20.038;2024-02-23T00:04:21;97202.25;;;1.46;100.00
15066;BME280;7632;64.944;20.038;2024-02-23T00:06:48;97193.00;;;1.46;100.00
15066;BME280;7632;64.944;20.038;2024-02-23T00:09:14;97198.91;;;1.44;100.00
15066;BME280;7632;64.944;20.038;2024-02-23T00:11:41;97197.25;;;1.43;100.00
15066;BME280;7632;64.944;20.038;2024-02-23T00:14:10;97198.91;;;1.44;100.00
15066;BME280;7632;64.944;20.038;2024-02-23T00:16:38;97200.56;;;1.48;100.00
15066;BME280;7632;64.944;20.038;2024-02-23T00:19:07;97203.09;;;1.48;100.00
15066;BME280;7632;64.944;20.038;2024-02-23T00:21:36;97208.97;;;1.50;100.00
15066;BME280;7632;64.944;20.038;2024-02-23T00:24:03;97197.19;;;1.49;100.00
15066;BME280;7632;64.944;20.038;2024-02-23T00:26:30;97190.50;;;1.42;100.00
15066;BME280;7632;64.944;20.038;2024-02-23T00:28:57;97197.25;;;1.40;100.00
15066;BME280;7632;64.944;20.038;2024-02-23T00:31:24;97208.97;;;1.50;100.00
15066;BME280;7632;64.944;20.038;2024-02-23T00:33:51;97210.66;;;1.51;100.00
15066;BME280;7632;64.944;20.038;2024-02-23T00:36:18;97215.72;;;1.51;100.00
15066;BME280;7632;64.944;20.038;2024-02-23T00:38:46;97215.72;;;1.48;100.00
15066;BME280;7632;64.944;20.038;2024-02-23T00:41:13;97204.72;;;1.52;100.00
15066;BME280;7632;64.944;20.038;2024-02-23T00:43:40;97207.28;;;1.50;100.00
15066;BME280;7632;64.944;20.038;2024-02-23T00:46:08;97208.13;;;1.51;100.00
15066;BME280;7632;64.944;20.038;2024-02-23T00:48:35;97206.44;;;1.51;100.00
15066;BME280;7632;64.944;20.038;2024-02-23T00:51:02;97194.66;;;1.49;100.00
15066;BME280;7632;64.944;20.038;2024-02-23T00:53:30;97203.94;;;1.47;100.00
15066;BME280;7632;64.944;20.038;2024-02-23T00:55:59;97211.50;;;1.50;100.00
15066;BME280;7632;64.944;20.038;2024-02-23T00:58:26;97205.59;;;1.51;100.00
15066;BME280;7632;64.944;20.038;2024-02-23T01:00:53;97198.84;;;1.53;100.00
15066;BME280;7632;64.944;20.038;2024-02-23T01:03:19;97197.13;;;1.52;100.00
15066;BME280;7632;64.944;20.038;2024-02-23T01:05:46;97194.69;;;1.47;100.00
15066;BME280;7632;64.944;20.038;2024-02-23T01:08:13;97190.41;;;1.51;100.00
15066;BME280;7632;64.944;20.038;2024-02-23T01:10:40;97182.84;;;1.49;100.00
15066;BME280;7632;64.944;20.038;2024-02-23T01:13:08;97192.91;;;1.55;100.00
15066;BME280;7632;64.944;20.038;2024-02-23T01:15:35;97189.56;;;1.50;100.00
15066;BME280;7632;64.944;20.038;2024-02-23T01:18:03;97202.22;;;1.50;100.00
15066;BME280;7632;64.944;20.038;2024-02-23T01:20:31;97188.78;;;1.47;100.00
15066;BME280;7632;64.944;20.038;2024-02-23T01:22:58;97203.88;;;1.53;100.00
15066;BME280;7632;64.944;20.038;2024-02-23T01:25:25;97200.47;;;1.57;100.00
15066;BME280;7632;64.944;20.038;2024-02-23T01:27:51;97183.78;;;1.41;100.00
15066;BME280;7632;64.944;20.038;2024-02-23T01:30:20;97201.34;;;1.54;100.00
15066;BME280;7632;64.944;20.038;2024-02-23T01:32:46;97192.13;;;1.46;100.00
15066;BME280;7632;64.944;20.038;2024-02-23T01:35:14;97192.13;;;1.49;100.00
15066;BME280;7632;64.944;20.038;2024-02-23T01:37:41;97198.84;;;1.53;100.00
15066;BME280;7632;64.944;20.038;2024-02-23T01:40:08;97177.84;;;1.43;100.00
15066;BME280;7632;64.944;20.038;2024-02-23T01:42:35;97175.31;;;1.45;100.00
15066;BME280;7632;64.944;20.038;2024-02-23T01:45:02;97187.06;;;1.49;100.00
15066;BME280;7632;64.944;20.038;2024-02-23T01:47:30;97182.00;;;1.49;100.00
15066;BME280;7632;64.944;20.038;2024-02-23T01:49:58;97175.31;;;1.42;100.00
15066;BME280;7632;64.944;20.038;2024-02-23T01:52:25;97181.16;;;1.48;100.00
15066;BME280;7632;64.944;20.038;2024-02-23T01:54:53;97184.59;;;1.43;100.00
15066;BME280;7632;64.944;20.038;2024-02-23T01:57:21;97188.78;;;1.47;100.00
15066;BME280;7632;64.944;20.038;2024-02-23T01:59:50;97197.25;;;1.43;100.00
15066;BME280;7632;64.944;20.038;2024-02-23T02:02:17;97192.97;;;1.48;100.00
15066;BME280;7632;64.944;20.038;2024-02-23T02:04:45;97197.19;;;1.46;100.00
15066;BME280;7632;64.944;20.038;2024-02-23T02:07:12;97188.00;;;1.40;100.00
15066;BME280;7632;64.944;20.038;2024-02-23T02:09:39;97199.78;;;1.43;100.00
15066;BME280;7632;64.944;20.038;2024-02-23T02:12:06;97205.66;;;1.45;100.00
15066;BME280;7632;64.944;20.038;2024-02-23T02:14:33;97206.50;;;1.45;100.00
15066;BME280;7632;64.944;20.038;2024-02-23T02:17:00;97202.25;;;1.49;100.00
15066;BME280;7632;64.944;20.038;2024-02-23T02:19:26;97205.66;;;1.42;100.00
15066;BME280;7632;64.944;20.038;2024-02-23T02:21:55;97191.38;;;1.41;100.00
15066;BME280;7632;64.944;20.038;2024-02-23T02:24:22;97203.97;;;1.44;100.00
15066;BME280;7632;64.944;20.038;2024-02-23T02:26:49;97203.97;;;1.44;100.00
15066;BME280;7632;64.944;20.038;2024-02-23T02:29:16;97207.38;;;1.43;100.00
15066;BME280;7632;64.944;20.038;2024-02-23T02:31:42;97203.13;;;1.45;100.00
15066;BME280;7632;64.944;20.038;2024-02-23T02:34:09;97210.72;;;1.42;100.00
15066;BME280;7632;64.944;20.038;2024-02-23T02:36:38;97204.00;;;1.41;100.00
15066;BME280;7632;64.944;20.038;2024-02-23T02:39:07;97210.72;;;1.45;100.00
15066;BME280;7632;64.944;20.038;2024-02-23T02:41:33;97208.13;;;1.48;100.00
15066;BME280;7632;64.944;20.038;2024-02-23T02:44:00;97205.59;;;1.51;100.00
15066;BME280;7632;64.944;20.038;2024-02-23T02:46:27;97214.09;;;1.45;100.00
15066;BME280;7632;64.944;20.038;2024-02-23T02:48:54;97210.72;;;1.45;100.00
15066;BME280;7632;64.944;20.038;2024-02-23T02:51:21;97208.13;;;1.48;100.00
15066;BME280;7632;64.944;20.038;2024-02-23T02:53:48;97209.03;;;1.44;100.00
15066;BME280;7632;64.944;20.038;2024-02-23T02:56:15;97215.75;;;1.46;100.00
15066;BME280;7632;64.944;20.038;2024-02-23T02:58:42;97203.13;;;1.45;100.00
15066;BME280;7632;64.944;20.038;2024-02-23T03:01:09;97196.41;;;1.41;100.00
15066;BME280;7632;64.944;20.038;2024-02-23T03:03:35;97214.09;;;1.44;100.00
15066;BME280;7632;64.944;20.038;2024-02-23T03:06:03;97199.72;;;1.46;100.00
15066;BME280;7632;64.944;20.038;2024-02-23T03:08:31;97206.50;;;1.44;100.00
15066;BME280;7632;64.944;20.038;2024-02-23T03:10:58;97203.97;;;1.44;100.00
15066;BME280;7632;64.944;20.038;2024-02-23T03:13:26;97199.75;;;1.44;100.00
15066;BME280;7632;64.944;20.038;2024-02-23T03:15:53;97198.91;;;1.44;100.00
15066;BME280;7632;64.944;20.038;2024-02-23T03:18:19;97200.63;;;1.42;100.00
15066;BME280;7632;64.944;20.038;2024-02-23T03:20:46;97188.84;;;1.38;100.00
15066;BME280;7632;64.944;20.038;2024-02-23T03:23:13;97197.31;;;1.37;100.00
15066;BME280;7632;64.944;20.038;2024-02-23T03:25:40;97204.00;;;1.41;100.00
15066;BME280;7632;64.944;20.038;2024-02-23T03:28:07;97202.31;;;1.43;100.00
15066;BME280;7632;64.944;20.038;2024-02-23T03:30:35;97194.75;;;1.38;100.00
15066;BME280;7632;64.944;20.038;2024-02-23T03:33:02;97198.13;;;1.39;100.00
15066;BME280;7632;64.944;20.038;2024-02-23T03:35:29;97199.03;;;1.32;100.00
15066;BME280;7632;64.944;20.038;2024-02-23T03:37:55;97200.78;;;1.27;100.00
15066;BME280;7632;64.944;20.038;2024-02-23T03:40:22;97197.41;;;1.26;100.00
15066;BME280;7632;64.944;20.038;2024-02-23T03:42:49;97191.53;;;1.24;100.00
15066;BME280;7632;64.944;20.038;2024-02-23T03:45:16;97194.91;;;1.25;100.00
15066;BME280;7632;64.944;20.038;2024-02-23T03:47:44;97194.91;;;1.23;100.00
15066;BME280;7632;64.944;20.038;2024-02-23T03:50:11;97195.75;;;1.24;100.00
15066;BME280;7632;64.944;20.038;2024-02-23T03:52:38;97179.00;;;1.11;100.00
15066;BME280;7632;64.944;20.038;2024-02-23T03:55:05;97189.03;;;1.21;100.00
15066;BME280;7632;64.944;20.038;2024-02-23T03:57:33;97188.16;;;1.22;100.00
15066;BME280;7632;64.944;20.038;2024-02-23T03:59:59;97191.56;;;1.18;100.00
15066;BME280;7632;64.944;20.038;2024-02-23T04:02:26;97185.69;;;1.18;100.00
15066;BME280;7632;64.944;20.038;2024-02-23T04:04:56;97173.94;;;1.11;100.00
15066;BME280;7632;64.944;20.038;2024-02-23T04:07:22;97188.22;;;1.16;100.00
15066;BME280;7632;64.944;20.038;2024-02-23T04:09:49;97186.56;;;1.15;100.00
15066;BME280;7632;64.944;20.038;2024-02-23T04:12:17;97184.09;;;1.08;100.00
15066;BME280;7632;64.944;20.038;2024-02-23T04:14:44;97189.16;;;1.08;100.00
15066;BME280;7632;64.944;20.038;2024-02-23T04:17:11;97183.25;;;1.09;100.00
15066;BME280;7632;64.944;20.038;2024-02-23T04:19:40;97172.31;;;1.05;100.00
15066;BME280;7632;64.944;20.038;2024-02-23T04:22:09;97179.94;;;1.04;100.00
15066;BME280;7632;64.944;20.038;2024-02-23T04:24:36;97178.22;;;1.07;100.00
15066;BME280;7632;64.944;20.038;2024-02-23T04:27:04;97176.53;;;1.08;100.00
15066;BME280;7632;64.944;20.038;2024-02-23T04:29:31;97179.84;;;1.11;100.00
15066;BME280;7632;64.944;20.038;2024-02-23T04:31:59;97179.88;;;1.10;100.00
15066;BME280;7632;64.944;20.038;2024-02-23T04:34:27;97173.13;;;1.09;100.00
15066;BME280;7632;64.944;20.038;2024-02-23T04:36:54;97172.28;;;1.10;100.00
15066;BME280;7632;64.944;20.038;2024-02-23T04:39:22;97171.41;;;1.15;100.00
15066;BME280;7632;64.944;20.038;2024-02-23T04:41:49;97168.91;;;1.11;100.00
15066;BME280;7632;64.944;20.038;2024-02-23T04:44:16;97169.72;;;1.13;100.00
15066;BME280;7632;64.944;20.038;2024-02-23T04:46:42;97171.41;;;1.15;100.00
15066;BME280;7632;64.944;20.038;2024-02-23T04:49:10;97163.84;;;1.14;100.00
15066;BME280;7632;64.944;20.038;2024-02-23T04:51:38;97155.31;;;1.21;100.00
15066;BME280;7632;64.944;20.038;2024-02-23T04:54:05;97165.44;;;1.21;100.00
15066;BME280;7632;64.944;20.038;2024-02-23T04:56:33;97162.91;;;1.21;100.00
15066;BME280;7632;64.944;20.038;2024-02-23T04:59:00;97156.19;;;1.18;100.00
15066;BME280;7632;64.944;20.038;2024-02-23T05:01:27;97157.00;;;1.22;100.00
15066;BME280;7632;64.944;20.038;2024-02-23T05:03:54;97154.47;;;1.22;100.00
15066;BME280;7632;64.944;20.038;2024-02-23T05:06:20;97155.38;;;1.15;100.00
15066;BME280;7632;64.944;20.038;2024-02-23T05:08:47;97157.88;;;1.19;100.00
15066;BME280;7632;64.944;20.038;2024-02-23T05:11:14;97153.63;;;1.23;100.00
15066;BME280;7632;64.944;20.038;2024-02-23T05:13:42;97151.97;;;1.22;100.00
15066;BME280;7632;64.944;20.038;2024-02-23T05:16:10;97147.75;;;1.19;100.00
15066;BME280;7632;64.944;20.038;2024-02-23T05:18:38;97145.19;;;1.24;100.00
15066;BME280;7632;64.944;20.038;2024-02-23T05:21:06;97147.69;;;1.25;100.00
15066;BME280;7632;64.944;20.038;2024-02-23T05:23:32;97142.69;;;1.19;100.00
15066;BME280;7632;64.944;20.038;2024-02-23T05:25:59;97151.13;;;1.20;100.00
15066;BME280;7632;64.944;20.038;2024-02-23T05:28:26;97154.53;;;1.16;100.00
15066;BME280;7632;64.944;20.038;2024-02-23T05:30:55;97144.38;;;1.20;100.00
15066;BME280;7632;64.944;20.038;2024-02-23T05:33:22;97138.50;;;1.17;100.00
15066;BME280;7632;64.944;20.038;2024-02-23T05:35:49;97139.34;;;1.17;100.00
15066;BME280;7632;64.944;20.038;2024-02-23T05:38:16;97146.97;;;1.16;100.00
15066;BME280;7632;64.944;20.038;2024-02-23T05:40:43;97146.91;;;1.22;100.00
15066;BME280;7632;64.944;20.038;2024-02-23T05:43:10;97146.97;;;1.13;100.00
15066;BME280;7632;64.944;20.038;2024-02-23T05:45:38;97150.38;;;1.09;100.00
15066;BME280;7632;64.944;20.038;2024-02-23T05:48:07;97150.31;;;1.15;100.00
15066;BME280;7632;64.944;20.038;2024-02-23T05:50:33;97148.69;;;1.11;100.00
15066;BME280;7632;64.944;20.038;2024-02-23T05:53:00;97148.72;;;1.05;100.00
15066;BME280;7632;64.944;20.038;2024-02-23T05:55:30;97164.72;;;1.10;100.00
15066;BME280;7632;64.944;20.038;2024-02-23T05:57:56;97175.66;;;1.12;100.00
15066;BME280;7632;64.944;20.038;2024-02-23T06:00:23;97177.34;;;1.10;100.00
15066;BME280;7632;64.944;20.038;2024-02-23T06:02:50;97174.06;;;1.02;100.00
15066;BME280;7632;64.944;20.038;2024-02-23T06:05:18;97176.53;;;1.08;100.00
15066;BME280;7632;64.944;20.038;2024-02-23T06:07:45;97174.00;;;1.08;100.00
15066;BME280;7632;64.944;20.038;2024-02-23T06:10:12;97172.31;;;1.07;100.00
15066;BME280;7632;64.944;20.038;2024-02-23T06:12:39;97169.75;;;1.11;100.00
15066;BME280;7632;64.944;20.038;2024-02-23T06:15:07;97174.00;;;1.08;100.00
15066;BME280;7632;64.944;20.038;2024-02-23T06:17:34;97163.88;;;1.06;100.00
15066;BME280;7632;64.944;20.038;2024-02-23T06:20:01;97170.66;;;1.06;100.00
15066;BME280;7632;64.944;20.038;2024-02-23T06:22:29;97163.06;;;1.03;100.00
15066;BME280;7632;64.944;20.038;2024-02-23T06:24:58;97155.63;;;0.88;100.00
15066;BME280;7632;64.944;20.038;2024-02-23T06:27:24;97158.94;;;0.93;100.00
15066;BME280;7632;64.944;20.038;2024-02-23T06:29:53;97157.25;;;0.95;100.00
15066;BME280;7632;64.944;20.038;2024-02-23T06:32:21;97154.00;;;0.83;100.00
15066;BME280;7632;64.944;20.038;2024-02-23T06:34:47;97159.75;;;0.96;100.00
15066;BME280;7632;64.944;20.038;2024-02-23T06:37:14;97153.09;;;0.89;100.00
15066;BME280;7632;64.944;20.038;2024-02-23T06:39:42;97164.09;;;0.83;100.00
15066;BME280;7632;64.944;20.038;2024-02-23T06:42:11;97164.00;;;0.93;100.00
15066;BME280;7632;64.944;20.038;2024-02-23T06:44:38;97157.31;;;0.88;100.00
15066;BME280;7632;64.944;20.038;2024-02-23T06:47:05;97157.31;;;0.88;100.00
15066;BME280;7632;64.944;20.038;2024-02-23T06:49:32;97149.75;;;0.85;100.00
15066;BME280;7632;64.944;20.038;2024-02-23T06:51:58;97163.25;;;0.83;100.00
15066;BME280;7632;64.944;20.038;2024-02-23T06:54:25;97154.78;;;0.87;100.00
15066;BME280;7632;64.944;20.038;2024-02-23T06:56:53;97154.00;;;0.83;100.00
15066;BME280;7632;64.944;20.038;2024-02-23T06:59:20;97159.03;;;0.83;100.00
15066;BME280;7632;64.944;20.038;2024-02-23T07:01:50;97149.78;;;0.82;100.00
15066;BME280;7632;64.944;20.038;2024-02-23T07:04:17;97148.94;;;0.83;100.00
15066;BME280;7632;64.944;20.038;2024-02-23T07:06:44;97150.59;;;0.84;100.00
15066;BME280;7632;64.944;20.038;2024-02-23T07:09:11;97142.19;;;0.82;100.00
15066;BME280;7632;64.944;20.038;2024-02-23T07:11:38;97144.75;;;0.81;100.00
15066;BME280;7632;64.944;20.038;2024-02-23T07:14:06;97147.34;;;0.73;100.00
15066;BME280;7632;64.944;20.038;2024-02-23T07:16:37;97152.38;;;0.73;100.00
15066;BME280;7632;64.944;20.038;2024-02-23T07:19:05;97144.00;;;0.71;100.00
15066;BME280;7632;64.944;20.038;2024-02-23T07:21:32;97154.09;;;0.71;100.00
15066;BME280;7632;64.944;20.038;2024-02-23T07:23:59;97155.75;;;0.72;100.00
15066;BME280;7632;64.944;20.038;2024-02-23T07:26:26;97151.59;;;0.67;100.00
15066;BME280;7632;64.944;20.038;2024-02-23T07:28:54;97162.53;;;0.67;100.00
15066;BME280;7632;64.944;20.038;2024-02-23T07:31:23;97165.06;;;0.66;100.00
15066;BME280;7632;64.944;20.038;2024-02-23T07:33:50;97160.84;;;0.69;100.00
15066;BME280;7632;64.944;20.038;2024-02-23T07:36:17;97155.78;;;0.69;100.00
15066;BME280;7632;64.944;20.038;2024-02-23T07:38:44;97175.09;;;0.72;100.00
15066;BME280;7632;64.944;20.038;2024-02-23T07:41:11;97166.75;;;0.67;100.00
15066;BME280;7632;64.944;20.038;2024-02-23T07:43:39;97164.22;;;0.67;100.00
15066;BME280;7632;64.944;20.038;2024-02-23T07:46:06;97174.25;;;0.74;100.00
15066;BME280;7632;64.944;20.038;2024-02-23T07:48:35;97171.75;;;0.73;100.00
15066;BME280;7632;64.944;20.038;2024-02-23T07:51:03;97159.13;;;0.71;100.00
15066;BME280;7632;64.944;20.038;2024-02-23T07:53:30;97159.97;;;0.72;100.00
15066;BME280;7632;64.944;20.038;2024-02-23T07:55:57;97160.78;;;0.75;100.00
15066;BME280;7632;64.944;20.038;2024-02-23T07:58:24;97158.22;;;0.78;100.00
15066;BME280;7632;64.944;20.038;2024-02-23T08:00:52;97158.22;;;0.81;100.00
15066;BME280;7632;64.944;20.038;2024-02-23T08:03:19;97156.50;;;0.82;100.00
15066;BME280;7632;64.944;20.038;2024-02-23T08:05:47;97165.84;;;0.72;100.00
15066;BME280;7632;64.944;20.038;2024-02-23T08:08:14;97150.75;;;0.66;100.00
15066;BME280;7632;64.944;20.038;2024-02-23T08:10:41;97164.13;;;0.76;100.00
15066;BME280;7632;64.944;20.038;2024-02-23T08:13:08;97165.84;;;0.72;100.00
15066;BME280;7632;64.944;20.038;2024-02-23T08:15:36;97165.84;;;0.75;100.00
15066;BME280;7632;64.944;20.038;2024-02-23T08:18:03;97159.09;;;0.77;100.00
15066;BME280;7632;64.944;20.038;2024-02-23T08:20:30;97168.31;;;0.81;100.00
15066;BME280;7632;64.944;20.038;2024-02-23T08:22:58;97162.41;;;0.82;100.00
15066;BME280;7632;64.944;20.038;2024-02-23T08:25:25;97161.56;;;0.82;100.00
15066;BME280;7632;64.944;20.038;2024-02-23T08:27:54;97164.94;;;0.82;100.00
15066;BME280;7632;64.944;20.038;2024-02-23T08:30:22;97154.91;;;0.73;100.00
15066;BME280;7632;64.944;20.038;2024-02-23T08:32:49;97169.16;;;0.83;100.00
15066;BME280;7632;64.944;20.038;2024-02-23T08:35:16;97160.66;;;0.89;100.00
15066;BME280;7632;64.944;20.038;2024-02-23T08:37:43;97166.56;;;0.88;100.00
15066;BME280;7632;64.944;20.038;2024-02-23T08:40:12;97165.69;;;0.92;100.00
15066;BME280;7632;64.944;20.038;2024-02-23T08:42:39;97148.91;;;0.86;100.00
15066;BME280;7632;64.944;20.038;2024-02-23T08:45:06;97163.13;;;0.97;100.00
15066;BME280;7632;64.944;20.038;2024-02-23T08:47:35;97155.53;;;1.00;100.00
15066;BME280;7632;64.944;20.038;2024-02-23T08:50:02;97153.88;;;0.96;100.00
15066;BME280;7632;64.944;20.038;2024-02-23T08:52:30;97135.44;;;0.88;100.00
15066;BME280;7632;64.944;20.038;2024-02-23T08:54:56;97125.31;;;0.88;100.00
15066;BME280;7632;64.944;20.038;2024-02-23T08:57:25;97137.00;;;0.96;100.00
15066;BME280;7632;64.944;20.038;2024-02-23T08:59:51;97118.53;;;0.93;100.00
15066;BME280;7632;64.944;20.038;2024-02-23T09:02:18;97124.41;;;0.93;100.00
15066;BME280;7632;64.944;20.038;2024-02-23T09:04:45;97142.03;;;1.04;100.00
15066;BME280;7632;64.944;20.038;2024-02-23T09:07:12;97138.69;;;0.99;100.00
15066;BME280;7632;64.944;20.038;2024-02-23T09:09:39;97141.16;;;1.05;100.00
15066;BME280;7632;64.944;20.038;2024-02-23T09:12:07;97138.63;;;1.08;100.00
15066;BME280;7632;64.944;20.038;2024-02-23T09:14:37;97147.03;;;1.10;100.00
15066;BME280;7632;64.944;20.038;2024-02-23T09:17:04;97139.38;;;1.14;100.00
15066;BME280;7632;64.944;20.038;2024-02-23T09:19:33;97131.84;;;1.10;100.00
15066;BME280;7632;64.944;20.038;2024-02-23T09:22:00;97136.78;;;1.22;100.00
15066;BME280;7632;64.944;20.038;2024-02-23T09:24:27;97136.00;;;1.15;100.00
15066;BME280;7632;64.944;20.038;2024-02-23T09:26:54;97129.31;;;1.08;100.00
15066;BME280;7632;64.944;20.038;2024-02-23T09:29:21;97137.03;;;0.98;100.00
15066;BME280;7632;64.944;20.038;2024-02-23T09:31:50;97137.00;;;0.96;100.00
15066;BME280;7632;64.944;20.038;2024-02-23T09:34:18;97133.66;;;0.96;100.00
15066;BME280;7632;64.944;20.038;2024-02-23T09:36:44;97129.41;;;1.01;100.00
15066;BME280;7632;64.944;20.038;2024-02-23T09:39:11;97127.78;;;0.95;100.00
15066;BME280;7632;64.944;20.038;2024-02-23T09:41:39;97110.09;;;0.94;100.00
15066;BME280;7632;64.944;20.038;2024-02-23T09:44:08;97125.28;;;0.94;100.00
15066;BME280;7632;64.944;20.038;2024-02-23T09:46:36;97125.19;;;0.98;100.00
15066;BME280;7632;64.944;20.038;2024-02-23T09:49:05;97120.16;;;1.00;100.00
15066;BME280;7632;64.944;20.038;2024-02-23T09:51:34;97111.66;;;1.07;100.00
15066;BME280;7632;64.944;20.038;2024-02-23T09:54:01;97118.44;;;1.02;100.00
15066;BME280;7632;64.944;20.038;2024-02-23T09:56:29;97106.69;;;0.98;100.00
15066;BME280;7632;64.944;20.038;2024-02-23T09:58:59;97087.28;;;1.01;100.00
15066;BME280;7632;64.944;20.038;2024-02-23T10:01:27;97104.94;;;1.03;100.00
15066;BME280;7632;64.944;20.038;2024-02-23T10:03:56;97100.69;;;1.08;100.00
15066;BME280;7632;64.944;20.038;2024-02-23T10:06:25;97077.16;;;1.01;100.00
15066;BME280;7632;64.944;20.038;2024-02-23T10:08:52;97090.53;;;1.12;100.00
15066;BME280;7632;64.944;20.038;2024-02-23T10:11:20;97093.88;;;1.13;100.00
15066;BME280;7632;64.944;20.038;2024-02-23T10:13:47;97084.66;;;1.09;100.00
15066;BME280;7632;64.944;20.038;2024-02-23T10:16:15;97088.00;;;1.11;100.00
15066;BME280;7632;64.944;20.038;2024-02-23T10:18:42;97084.66;;;1.09;100.00
15066;BME280;7632;64.944;20.038;2024-02-23T10:21:09;97080.41;;;1.14;100.00
15066;BME280;7632;64.944;20.038;2024-02-23T10:23:38;97091.44;;;1.07;100.00
15066;BME280;7632;64.944;20.038;2024-02-23T10:26:05;97088.91;;;1.05;100.00
15066;BME280;7632;64.944;20.038;2024-02-23T10:28:32;97083.00;;;1.08;100.00
15066;BME280;7632;64.944;20.038;2024-02-23T10:31:00;97078.75;;;1.08;100.00
15066;BME280;7632;64.944;20.038;2024-02-23T10:33:27;97071.16;;;1.13;100.00
15066;BME280;7632;64.944;20.038;2024-02-23T10:35:56;97077.09;;;1.09;100.00
15066;BME280;7632;64.944;20.038;2024-02-23T10:38:23;97084.66;;;1.09;100.00
15066;BME280;7632;64.944;20.038;2024-02-23T10:40:55;97079.59;;;1.10;100.00
15066;BME280;7632;64.944;20.038;2024-02-23T10:43:27;97066.03;;;1.19;100.00
15066;BME280;7632;64.944;20.038;2024-02-23T10:45:57;97062.69;;;1.15;100.00
15066;BME280;7632;64.944;20.038;2024-02-23T10:48:28;97055.97;;;1.13;100.00
15066;BME280;7632;64.944;20.038;2024-02-23T10:50:55;97052.66;;;1.06;100.00
15066;BME280;7632;64.944;20.038;2024-02-23T10:53:24;97053.56;;;1.02;100.00
15066;BME280;7632;64.944;20.038;2024-02-23T10:55:56;97045.16;;;1.00;100.00
15066;BME280;7632;64.944;20.038;2024-02-23T10:58:23;97037.59;;;0.99;100.00
15066;BME280;7632;64.944;20.038;2024-02-23T11:00:51;97056.09;;;1.04;100.00
15066;BME280;7632;64.944;20.038;2024-02-23T11:03:18;97042.53;;;1.11;100.00
15066;BME280;7632;64.944;20.038;2024-02-23T11:05:47;97051.78;;;1.10;100.00
15066;BME280;7632;64.944;20.038;2024-02-23T11:08:17;97043.25;;;1.20;100.00
15066;BME280;7632;64.944;20.038;2024-02-23T11:10:49;97025.75;;;1.04;100.00
15066;BME280;7632;64.944;20.038;2024-02-23T11:13:18;97033.97;;;1.21;100.00
15066;BME280;7632;64.944;20.038;2024-02-23T11:16:01;97024.72;;;1.18;100.00
15066;BME280;7632;64.944;20.038;2024-02-23T11:18:29;97004.56;;;1.12;100.00
15066;BME280;7632;64.944;20.038;2024-02-23T11:20:59;97025.56;;;1.19;100.00
15066;BME280;7632;64.944;20.038;2024-02-23T11:23:27;97023.09;;;1.14;100.00
15066;BME280;7632;64.944;20.038;2024-02-23T11:26:07;97030.69;;;1.13;100.00
15066;BME280;7632;64.944;20.038;2024-02-23T11:28:43;97021.41;;;1.15;100.00
15066;BME280;7632;64.944;20.038;2024-02-23T11:31:13;97012.16;;;1.14;100.00
15066;BME280;7632;64.944;20.038;2024-02-23T11:33:41;97005.41;;;1.13;100.00
15066;BME280;7632;64.944;20.038;2024-02-23T11:36:22;97002.88;;;1.14;100.00
15066;BME280;7632;64.944;20.038;2024-02-23T11:38:52;97007.84;;;1.22;100.00
15066;BME280;7632;64.944;20.038;2024-02-23T11:41:20;97013.81;;;1.18;100.00
15066;BME280;7632;64.944;20.038;2024-02-23T11:43:49;97003.72;;;1.15;100.00
15066;BME280;7632;64.944;20.038;2024-02-23T11:46:16;96999.44;;;1.18;100.00
15066;BME280;7632;64.944;20.038;2024-02-23T11:48:43;96999.44;;;1.21;100.00
15066;BME280;7632;64.944;20.038;2024-02-23T11:51:12;96986.81;;;1.18;100.00
15066;BME280;7632;64.944;20.038;2024-02-23T11:53:39;96981.75;;;1.20;100.00
15066;BME280;7632;64.944;20.038;2024-02-23T11:56:06;96980.94;;;1.18;100.00
15066;BME280;7632;64.944;20.038;2024-02-23T11:58:33;96981.84;;;1.14;100.00
15066;BME280;7632;64.944;20.038;2024-02-23T12:01:02;96975.88;;;1.18;100.00
15066;BME280;7632;64.944;20.038;2024-02-23T12:03:29;96965.78;;;1.15;100.00
15066;BME280;7632;64.944;20.038;2024-02-23T12:05:57;96962.41;;;1.17;100.00
15066;BME280;7632;64.944;20.038;2024-02-23T12:08:24;96968.31;;;1.15;100.00
15066;BME280;7632;64.944;20.038;2024-02-23T12:10:53;96960.72;;;1.16;100.00
15066;BME280;7632;64.944;20.038;2024-02-23T12:13:20;96956.56;;;1.14;100.00
15066;BME280;7632;64.944;20.038;2024-02-23T12:15:47;96939.75;;;1.10;100.00
15066;BME280;7632;64.944;20.038;2024-02-23T12:18:16;96956.44;;;1.21;100.00
15066;BME280;7632;64.944;20.038;2024-02-23T12:20:42;96951.41;;;1.20;100.00
15066;BME280;7632;64.944;20.038;2024-02-23T12:23:11;96936.19;;;1.26;100.00
15066;BME280;7632;64.944;20.038;2024-02-23T12:25:38;96920.09;;;1.28;100.00
15066;BME280;7632;64.944;20.038;2024-02-23T12:28:05;96899.09;;;1.25;100.00
15066;BME280;7632;64.944;20.038;2024-02-23T12:30:32;96898.09;;;1.35;100.00
15066;BME280;7632;64.944;20.038;2024-02-23T12:33:06;96902.38;;;1.30;100.00
15066;BME280;7632;64.944;20.038;2024-02-23T12:35:35;96912.59;;;1.24;100.00
15066;BME280;7632;64.944;20.038;2024-02-23T12:38:02;96912.56;;;1.27;100.00
15066;BME280;7632;64.944;20.038;2024-02-23T12:40:29;96923.59;;;1.21;100.00
15066;BME280;7632;64.944;20.038;2024-02-23T12:42:56;96920.94;;;1.29;100.00
15066;BME280;7632;64.944;20.038;2024-02-23T12:45:22;96911.72;;;1.25;100.00
15066;BME280;7632;64.944;20.038;2024-02-23T12:47:49;96888.97;;;1.25;100.00
15066;BME280;7632;64.944;20.038;2024-02-23T12:50:16;96896.63;;;1.22;100.00
15066;BME280;7632;64.944;20.038;2024-02-23T12:52:44;96902.53;;;1.21;100.00
15066;BME280;7632;64.944;20.038;2024-02-23T12:55:12;96906.00;;;1.14;100.00
15066;BME280;7632;64.944;20.038;2024-02-23T12:57:39;96910.97;;;1.20;100.00
15066;BME280;7632;64.944;20.038;2024-02-23T13:00:07;96899.25;;;1.13;100.00
15066;BME280;7632;64.944;20.038;2024-02-23T13:02:34;96906.72;;;1.20;100.00